sensor_id;sensor_type;location;lat;lon;timestamp;temperature;humidity
43581;DHT22;29175;51.030;4.606;2023-04-01T00:00:30;10.70;99.90
43581;DHT22;29175;51.030;4.606;2023-04-01T00:02:56;10.60;99.90
43581;DHT22;29175;51.030;4.606;2023-04-01T00:05:22;10.60;99.90
43581;DHT22;29175;51.030;4.606;2023-04-01T00:07:50;10.60;99.90
43581;DHT22;29175;51.030;4.606;2023-04-01T00:10:16;10.60;99.90
43581;DHT22;29175;51.030;4.606;2023-04-01T00:12:43;10.60;99.90
43581;DHT22;29175;51.030;4.606;2023-04-01T00:15:10;10.70;99.90
43581;DHT22;29175;51.030;4.606;2023-04-01T00:17:36;10.60;99.90
43581;DHT22;29175;51.030;4.606;2023-04-01T00:20:05;10.60;99.90
43581;DHT22;29175;51.030;4.606;2023-04-01T00:22:33;10.70;99.90
43581;DHT22;29175;51.030;4.606;2023-04-01T00:24:59;10.60;99.90
43581;DHT22;29175;51.030;4.606;2023-04-01T00:27:25;10.60;99.90
43581;DHT22;29175;51.030;4.606;2023-04-01T00:29:51;10.60;99.90
43581;DHT22;29175;51.030;4.606;2023-04-01T00:32:17;10.70;99.90
43581;DHT22;29175;51.030;4.606;2023-04-01T00:34:43;10.70;99.90
43581;DHT22;29175;51.030;4.606;2023-04-01T00:37:10;10.70;99.90
43581;DHT22;29175;51.030;4.606;2023-04-01T00:39:37;10.70;99.90
43581;DHT22;29175;51.030;4.606;2023-04-01T00:42:03;10.60;99.90
43581;DHT22;29175;51.030;4.606;2023-04-01T00:44:32;10.70;99.90
43581;DHT22;29175;51.030;4.606;2023-04-01T00:46:59;10.80;99.90
43581;DHT22;29175;51.030;4.606;2023-04-01T00:49:35;10.80;99.90
43581;DHT22;29175;51.030;4.606;2023-04-01T00:52:04;10.90;99.90
43581;DHT22;29175;51.030;4.606;2023-04-01T00:54:31;10.80;99.90
43581;DHT22;29175;51.030;4.606;2023-04-01T00:57:06;10.90;99.90
43581;DHT22;29175;51.030;4.606;2023-04-01T00:59:35;11.10;99.90
43581;DHT22;29175;51.030;4.606;2023-04-01T01:02:03;11.00;99.90
43581;DHT22;29175;51.030;4.606;2023-04-01T01:04:33;10.90;99.90
43581;DHT22;29175;51.030;4.606;2023-04-01T01:09:49;10.80;99.90
43581;DHT22;29175;51.030;4.606;2023-04-01T01:12:34;10.80;99.90
43581;DHT22;29175;51.030;4.606;2023-04-01T01:20:30;10.80;99.90
43581;DHT22;29175;51.030;4.606;2023-04-01T01:36:34;10.90;99.90
43581;DHT22;29175;51.030;4.606;2023-04-01T01:39:02;11.00;99.90
43581;DHT22;29175;51.030;4.606;2023-04-01T01:41:31;11.00;99.90
43581;DHT22;29175;51.030;4.606;2023-04-01T01:43:59;11.00;99.90
43581;DHT22;29175;51.030;4.606;2023-04-01T01:46:27;10.90;99.90
43581;DHT22;29175;51.030;4.606;2023-04-01T01:48:55;10.70;99.90
43581;DHT22;29175;51.030;4.606;2023-04-01T01:51:22;10.80;99.90
43581;DHT22;29175;51.030;4.606;2023-04-01T01:53:48;10.70;99.90
43581;DHT22;29175;51.030;4.606;2023-04-01T01:56:14;10.60;99.90
43581;DHT22;29175;51.030;4.606;2023-04-01T01:58:45;10.90;99.90
43581;DHT22;29175;51.030;4.606;2023-04-01T02:01:24;11.10;99.90
43581;DHT22;29175;51.030;4.606;2023-04-01T02:03:52;11.10;99.90
43581;DHT22;29175;51.030;4.606;2023-04-01T02:06:21;10.90;99.90
43581;DHT22;29175;51.030;4.606;2023-04-01T02:09:00;10.90;99.90
43581;DHT22;29175;51.030;4.606;2023-04-01T02:11:41;10.80;99.90
43581;DHT22;29175;51.030;4.606;2023-04-01T02:14:10;10.80;99.90
43581;DHT22;29175;51.030;4.606;2023-04-01T02:16:51;10.90;99.90
43581;DHT22;29175;51.030;4.606;2023-04-01T02:19:22;10.90;99.90
43581;DHT22;29175;51.030;4.606;2023-04-01T02:21:53;10.90;99.90
43581;DHT22;29175;51.030;4.606;2023-04-01T02:24:22;10.80;99.90
43581;DHT22;29175;51.030;4.606;2023-04-01T02:26:50;10.80;99.90
43581;DHT22;29175;51.030;4.606;2023-04-01T02:29:19;10.70;99.90
43581;DHT22;29175;51.030;4.606;2023-04-01T02:31:46;10.70;99.90
43581;DHT22;29175;51.030;4.606;2023-04-01T02:34:12;10.70;99.90
43581;DHT22;29175;51.030;4.606;2023-04-01T02:36:39;10.70;99.90
43581;DHT22;29175;51.030;4.606;2023-04-01T02:39:05;10.70;99.90
43581;DHT22;29175;51.030;4.606;2023-04-01T02:41:42;10.70;99.90
43581;DHT22;29175;51.030;4.606;2023-04-01T02:44:09;10.70;99.90
43581;DHT22;29175;51.030;4.606;2023-04-01T02:46:35;10.60;99.90
43581;DHT22;29175;51.030;4.606;2023-04-01T02:49:01;10.70;99.90
43581;DHT22;29175;51.030;4.606;2023-04-01T02:51:27;10.60;99.90
43581;DHT22;29175;51.030;4.606;2023-04-01T02:53:53;10.70;99.90
43581;DHT22;29175;51.030;4.606;2023-04-01T02:56:19;10.70;99.90
43581;DHT22;29175;51.030;4.606;2023-04-01T02:58:45;10.60;99.90
43581;DHT22;29175;51.030;4.606;2023-04-01T03:01:11;10.60;99.90
43581;DHT22;29175;51.030;4.606;2023-04-01T03:03:37;10.70;99.90
43581;DHT22;29175;51.030;4.606;2023-04-01T03:06:07;10.70;99.90
43581;DHT22;29175;51.030;4.606;2023-04-01T03:08:33;10.70;99.90
43581;DHT22;29175;51.030;4.606;2023-04-01T03:10:59;10.70;99.90
43581;DHT22;29175;51.030;4.606;2023-04-01T03:13:25;10.60;99.90
43581;DHT22;29175;51.030;4.606;2023-04-01T03:15:51;10.60;99.90
43581;DHT22;29175;51.030;4.606;2023-04-01T03:18:17;10.70;99.90
43581;DHT22;29175;51.030;4.606;2023-04-01T03:20:48;10.60;99.90
43581;DHT22;29175;51.030;4.606;2023-04-01T03:23:20;10.70;99.90
43581;DHT22;29175;51.030;4.606;2023-04-01T03:25:47;10.70;99.90
43581;DHT22;29175;51.030;4.606;2023-04-01T03:28:13;10.70;99.90
43581;DHT22;29175;51.030;4.606;2023-04-01T03:30:39;10.70;99.90
43581;DHT22;29175;51.030;4.606;2023-04-01T03:33:06;10.60;99.90
43581;DHT22;29175;51.030;4.606;2023-04-01T03:35:32;10.70;99.90
43581;DHT22;29175;51.030;4.606;2023-04-01T03:37:58;10.70;99.90
43581;DHT22;29175;51.030;4.606;2023-04-01T03:40:24;10.60;99.90
43581;DHT22;29175;51.030;4.606;2023-04-01T03:42:51;10.60;99.90
43581;DHT22;29175;51.030;4.606;2023-04-01T03:45:18;10.50;99.90
43581;DHT22;29175;51.030;4.606;2023-04-01T03:47:44;10.50;99.90
43581;DHT22;29175;51.030;4.606;2023-04-01T03:50:10;10.50;99.90
43581;DHT22;29175;51.030;4.606;2023-04-01T03:52:36;10.40;99.90
43581;DHT22;29175;51.030;4.606;2023-04-01T03:55:14;10.40;99.90
43581;DHT22;29175;51.030;4.606;2023-04-01T03:57:47;10.40;99.90
43581;DHT22;29175;51.030;4.606;2023-04-01T04:00:41;10.30;99.90
43581;DHT22;29175;51.030;4.606;2023-04-01T04:03:36;10.40;99.90
43581;DHT22;29175;51.030;4.606;2023-04-01T04:06:41;10.40;99.90
43581;DHT22;29175;51.030;4.606;2023-04-01T04:09:24;10.50;99.90
43581;DHT22;29175;51.030;4.606;2023-04-01T04:11:53;10.40;99.90
43581;DHT22;29175;51.030;4.606;2023-04-01T04:14:19;10.40;99.90
43581;DHT22;29175;51.030;4.606;2023-04-01T04:16:45;10.40;99.90
43581;DHT22;29175;51.030;4.606;2023-04-01T04:19:11;10.40;99.90
43581;DHT22;29175;51.030;4.606;2023-04-01T04:21:36;10.50;99.90
43581;DHT22;29175;51.030;4.606;2023-04-01T04:24:03;10.60;99.90
43581;DHT22;29175;51.030;4.606;2023-04-01T04:26:30;10.70;99.90
43581;DHT22;29175;51.030;4.606;2023-04-01T04:28:57;10.60;99.90
43581;DHT22;29175;51.030;4.606;2023-04-01T04:31:24;10.60;99.90
43581;DHT22;29175;51.030;4.606;2023-04-01T04:33:51;10.50;99.90
43581;DHT22;29175;51.030;4.606;2023-04-01T04:36:17;10.40;99.90
43581;DHT22;29175;51.030;4.606;2023-04-01T04:38:43;10.40;99.90
43581;DHT22;29175;51.030;4.606;2023-04-01T04:41:14;10.50;99.90
43581;DHT22;29175;51.030;4.606;2023-04-01T04:43:42;10.50;99.90
43581;DHT22;29175;51.030;4.606;2023-04-01T04:46:13;10.40;99.90
43581;DHT22;29175;51.030;4.606;2023-04-01T04:48:39;10.50;99.90
43581;DHT22;29175;51.030;4.606;2023-04-01T04:51:05;10.60;99.90
43581;DHT22;29175;51.030;4.606;2023-04-01T04:53:31;10.60;99.90
43581;DHT22;29175;51.030;4.606;2023-04-01T04:55:57;10.70;99.90
43581;DHT22;29175;51.030;4.606;2023-04-01T04:58:22;10.60;99.90
43581;DHT22;29175;51.030;4.606;2023-04-01T05:00:48;10.60;99.90
43581;DHT22;29175;51.030;4.606;2023-04-01T05:03:14;10.50;99.90
43581;DHT22;29175;51.030;4.606;2023-04-01T05:05:47;10.60;99.90
43581;DHT22;29175;51.030;4.606;2023-04-01T05:08:13;10.60;99.90
43581;DHT22;29175;51.030;4.606;2023-04-01T05:10:38;10.70;99.90
43581;DHT22;29175;51.030;4.606;2023-04-01T05:13:04;10.70;99.90
43581;DHT22;29175;51.030;4.606;2023-04-01T05:15:30;10.70;99.90
43581;DHT22;29175;51.030;4.606;2023-04-01T05:17:56;10.60;99.90
43581;DHT22;29175;51.030;4.606;2023-04-01T05:20:22;10.60;99.90
43581;DHT22;29175;51.030;4.606;2023-04-01T05:22:47;10.60;99.90
43581;DHT22;29175;51.030;4.606;2023-04-01T05:25:13;10.60;99.90
43581;DHT22;29175;51.030;4.606;2023-04-01T05:27:39;10.50;99.90
43581;DHT22;29175;51.030;4.606;2023-04-01T05:30:07;10.40;99.90
43581;DHT22;29175;51.030;4.606;2023-04-01T05:32:33;10.30;99.90
43581;DHT22;29175;51.030;4.606;2023-04-01T05:34:59;10.40;99.90
43581;DHT22;29175;51.030;4.606;2023-04-01T05:37:25;10.40;99.90
43581;DHT22;29175;51.030;4.606;2023-04-01T05:39:51;10.40;99.90
43581;DHT22;29175;51.030;4.606;2023-04-01T05:42:16;10.50;99.90
43581;DHT22;29175;51.030;4.606;2023-04-01T05:44:42;10.60;99.90
43581;DHT22;29175;51.030;4.606;2023-04-01T05:47:08;10.60;99.90
43581;DHT22;29175;51.030;4.606;2023-04-01T05:49:34;10.60;99.90
43581;DHT22;29175;51.030;4.606;2023-04-01T05:52:00;10.60;99.90
43581;DHT22;29175;51.030;4.606;2023-04-01T05:54:25;10.60;99.90
43581;DHT22;29175;51.030;4.606;2023-04-01T05:56:51;10.60;99.90
43581;DHT22;29175;51.030;4.606;2023-04-01T05:59:17;10.70;99.90
43581;DHT22;29175;51.030;4.606;2023-04-01T06:01:43;10.70;99.90
43581;DHT22;29175;51.030;4.606;2023-04-01T06:04:16;10.50;99.90
43581;DHT22;29175;51.030;4.606;2023-04-01T06:06:43;10.30;99.90
43581;DHT22;29175;51.030;4.606;2023-04-01T06:09:28;10.20;99.90
43581;DHT22;29175;51.030;4.606;2023-04-01T06:25:38;10.40;99.90
43581;DHT22;29175;51.030;4.606;2023-04-01T06:39:24;10.30;99.90
43581;DHT22;29175;51.030;4.606;2023-04-01T06:45:15;10.40;99.90
43581;DHT22;29175;51.030;4.606;2023-04-01T06:53:32;10.30;99.90
43581;DHT22;29175;51.030;4.606;2023-04-01T06:56:03;10.50;99.90
43581;DHT22;29175;51.030;4.606;2023-04-01T06:58:41;10.50;99.90
43581;DHT22;29175;51.030;4.606;2023-04-01T07:01:12;10.40;99.90
43581;DHT22;29175;51.030;4.606;2023-04-01T07:04:16;10.40;99.90
43581;DHT22;29175;51.030;4.606;2023-04-01T07:06:54;10.40;99.90
43581;DHT22;29175;51.030;4.606;2023-04-01T07:09:33;10.30;99.90
43581;DHT22;29175;51.030;4.606;2023-04-01T07:12:05;10.50;99.90
43581;DHT22;29175;51.030;4.606;2023-04-01T07:14:37;10.50;99.90
43581;DHT22;29175;51.030;4.606;2023-04-01T07:17:36;10.50;99.90
43581;DHT22;29175;51.030;4.606;2023-04-01T07:22:51;10.70;99.90
43581;DHT22;29175;51.030;4.606;2023-04-01T07:25:21;10.90;99.90
43581;DHT22;29175;51.030;4.606;2023-04-01T07:28:00;10.90;99.90
43581;DHT22;29175;51.030;4.606;2023-04-01T07:30:30;10.90;99.90
43581;DHT22;29175;51.030;4.606;2023-04-01T07:38:40;10.80;99.90
43581;DHT22;29175;51.030;4.606;2023-04-01T07:41:18;10.80;99.90
43581;DHT22;29175;51.030;4.606;2023-04-01T07:44:25;10.70;99.90
43581;DHT22;29175;51.030;4.606;2023-04-01T07:58:02;10.60;99.90
43581;DHT22;29175;51.030;4.606;2023-04-01T08:00:51;10.80;99.90
43581;DHT22;29175;51.030;4.606;2023-04-01T08:03:31;10.80;99.90
43581;DHT22;29175;51.030;4.606;2023-04-01T08:06:07;10.80;99.90
43581;DHT22;29175;51.030;4.606;2023-04-01T08:13:39;11.00;99.90
43581;DHT22;29175;51.030;4.606;2023-04-01T08:16:38;11.10;99.90
43581;DHT22;29175;51.030;4.606;2023-04-01T08:22:20;10.90;99.90
43581;DHT22;29175;51.030;4.606;2023-04-01T08:24:48;11.00;99.90
43581;DHT22;29175;51.030;4.606;2023-04-01T08:27:22;11.10;99.90
43581;DHT22;29175;51.030;4.606;2023-04-01T08:30:02;11.20;99.90
43581;DHT22;29175;51.030;4.606;2023-04-01T08:32:36;11.20;99.90
43581;DHT22;29175;51.030;4.606;2023-04-01T08:37:41;11.50;99.90
43581;DHT22;29175;51.030;4.606;2023-04-01T08:45:42;11.40;99.90
43581;DHT22;29175;51.030;4.606;2023-04-01T08:48:33;11.50;99.90
43581;DHT22;29175;51.030;4.606;2023-04-01T09:00:56;11.40;99.90
43581;DHT22;29175;51.030;4.606;2023-04-01T09:06:20;11.60;99.90
43581;DHT22;29175;51.030;4.606;2023-04-01T09:17:47;12.00;99.90
43581;DHT22;29175;51.030;4.606;2023-04-01T09:20:46;12.00;99.90
43581;DHT22;29175;51.030;4.606;2023-04-01T09:29:40;12.10;99.90
43581;DHT22;29175;51.030;4.606;2023-04-01T09:32:22;12.10;99.90
43581;DHT22;29175;51.030;4.606;2023-04-01T09:34:55;12.20;99.90
43581;DHT22;29175;51.030;4.606;2023-04-01T09:37:35;12.30;99.90
43581;DHT22;29175;51.030;4.606;2023-04-01T09:42:49;12.20;99.90
43581;DHT22;29175;51.030;4.606;2023-04-01T09:51:31;12.10;99.90
43581;DHT22;29175;51.030;4.606;2023-04-01T10:22:23;12.00;99.90
43581;DHT22;29175;51.030;4.606;2023-04-01T10:36:43;12.50;99.90
43581;DHT22;29175;51.030;4.606;2023-04-01T11:02:02;11.90;99.90
43581;DHT22;29175;51.030;4.606;2023-04-01T11:22:10;12.20;99.90
43581;DHT22;29175;51.030;4.606;2023-04-01T11:30:41;12.30;99.90
43581;DHT22;29175;51.030;4.606;2023-04-01T11:36:33;12.30;99.90
43581;DHT22;29175;51.030;4.606;2023-04-01T11:44:40;12.10;99.90
43581;DHT22;29175;51.030;4.606;2023-04-01T11:48:24;12.10;99.90
43581;DHT22;29175;51.030;4.606;2023-04-01T11:53:31;12.10;99.90
43581;DHT22;29175;51.030;4.606;2023-04-01T11:56:35;12.30;99.90
43581;DHT22;29175;51.030;4.606;2023-04-01T12:07:55;12.00;99.90
43581;DHT22;29175;51.030;4.606;2023-04-01T12:18:46;11.90;99.90
43581;DHT22;29175;51.030;4.606;2023-04-01T12:21:38;11.90;99.90
43581;DHT22;29175;51.030;4.606;2023-04-01T12:24:26;11.80;99.90
43581;DHT22;29175;51.030;4.606;2023-04-01T12:27:04;11.60;99.90
43581;DHT22;29175;51.030;4.606;2023-04-01T12:41:09;12.00;99.90
43581;DHT22;29175;51.030;4.606;2023-04-01T12:43:46;12.30;99.90
43581;DHT22;29175;51.030;4.606;2023-04-01T12:46:28;12.40;99.90
43581;DHT22;29175;51.030;4.606;2023-04-01T12:49:12;12.40;99.90
43581;DHT22;29175;51.030;4.606;2023-04-01T12:55:38;12.50;99.90
43581;DHT22;29175;51.030;4.606;2023-04-01T12:58:37;12.20;99.90
43581;DHT22;29175;51.030;4.606;2023-04-01T13:07:32;12.10;99.90
43581;DHT22;29175;51.030;4.606;2023-04-01T13:10:27;11.90;99.90
43581;DHT22;29175;51.030;4.606;2023-04-01T13:13:14;12.00;99.90
43581;DHT22;29175;51.030;4.606;2023-04-01T13:15:52;12.20;99.90
43581;DHT22;29175;51.030;4.606;2023-04-01T13:18:37;12.20;99.90
43581;DHT22;29175;51.030;4.606;2023-04-01T13:24:00;12.50;99.90
43581;DHT22;29175;51.030;4.606;2023-04-01T13:32:34;12.40;99.90
43581;DHT22;29175;51.030;4.606;2023-04-01T13:46:12;12.60;99.90
43581;DHT22;29175;51.030;4.606;2023-04-01T14:03:09;12.50;99.90
43581;DHT22;29175;51.030;4.606;2023-04-01T14:19:34;12.80;99.90
43581;DHT22;29175;51.030;4.606;2023-04-01T14:22:32;12.80;99.90
43581;DHT22;29175;51.030;4.606;2023-04-01T14:35:17;12.90;99.90
43581;DHT22;29175;51.030;4.606;2023-04-01T14:37:15;13.10;99.90
43581;DHT22;29175;51.030;4.606;2023-04-01T14:50:25;12.90;99.90
43581;DHT22;29175;51.030;4.606;2023-04-01T14:53:33;13.00;99.90
43581;DHT22;29175;51.030;4.606;2023-04-01T14:56:02;13.00;99.90
43581;DHT22;29175;51.030;4.606;2023-04-01T14:58:45;13.00;99.90
43581;DHT22;29175;51.030;4.606;2023-04-01T15:01:38;13.10;99.90
43581;DHT22;29175;51.030;4.606;2023-04-01T15:07:26;13.10;99.90
43581;DHT22;29175;51.030;4.606;2023-04-01T15:18:05;13.20;99.90
43581;DHT22;29175;51.030;4.606;2023-04-01T15:21:04;12.90;99.90
43581;DHT22;29175;51.030;4.606;2023-04-01T15:23:43;12.50;99.90
43581;DHT22;29175;51.030;4.606;2023-04-01T15:37:21;12.90;99.90
43581;DHT22;29175;51.030;4.606;2023-04-01T15:42:55;12.50;99.90
43581;DHT22;29175;51.030;4.606;2023-04-01T15:56:23;12.50;99.90
43581;DHT22;29175;51.030;4.606;2023-04-01T16:01:43;12.80;99.90
43581;DHT22;29175;51.030;4.606;2023-04-01T16:09:59;12.50;99.90
43581;DHT22;29175;51.030;4.606;2023-04-01T16:24:28;11.40;99.90
43581;DHT22;29175;51.030;4.606;2023-04-01T16:27:20;11.50;99.90
43581;DHT22;29175;51.030;4.606;2023-04-01T16:30:03;11.50;99.90
43581;DHT22;29175;51.030;4.606;2023-04-01T16:33:50;11.50;99.90
43581;DHT22;29175;51.030;4.606;2023-04-01T16:36:30;11.40;99.90
43581;DHT22;29175;51.030;4.606;2023-04-01T16:41:51;11.40;99.90
43581;DHT22;29175;51.030;4.606;2023-04-01T16:44:23;11.40;99.90
43581;DHT22;29175;51.030;4.606;2023-04-01T16:47:04;11.70;99.90
43581;DHT22;29175;51.030;4.606;2023-04-01T16:49:44;11.80;99.90
43581;DHT22;29175;51.030;4.606;2023-04-01T16:57:42;11.90;99.90
43581;DHT22;29175;51.030;4.606;2023-04-01T17:00:27;11.70;99.90
43581;DHT22;29175;51.030;4.606;2023-04-01T17:03:42;11.60;99.90
43581;DHT22;29175;51.030;4.606;2023-04-01T17:09:01;11.50;99.90
43581;DHT22;29175;51.030;4.606;2023-04-01T17:11:39;11.40;99.90
43581;DHT22;29175;51.030;4.606;2023-04-01T17:17:23;11.30;99.90
43581;DHT22;29175;51.030;4.606;2023-04-01T17:25:37;11.40;99.90
43581;DHT22;29175;51.030;4.606;2023-04-01T17:28:26;11.50;99.90
43581;DHT22;29175;51.030;4.606;2023-04-01T17:36:51;11.40;99.90
43581;DHT22;29175;51.030;4.606;2023-04-01T17:42:27;11.40;99.90
43581;DHT22;29175;51.030;4.606;2023-04-01T17:56:02;11.30;99.90
43581;DHT22;29175;51.030;4.606;2023-04-01T18:04:08;11.40;99.90
43581;DHT22;29175;51.030;4.606;2023-04-01T18:09:47;11.20;99.90
43581;DHT22;29175;51.030;4.606;2023-04-01T18:15:21;11.20;99.90
43581;DHT22;29175;51.030;4.606;2023-04-01T18:25:40;11.00;99.90
43581;DHT22;29175;51.030;4.606;2023-04-01T18:28:34;10.90;99.90
43581;DHT22;29175;51.030;4.606;2023-04-01T18:39:22;11.00;99.90
43581;DHT22;29175;51.030;4.606;2023-04-01T18:42:16;11.00;99.90
43581;DHT22;29175;51.030;4.606;2023-04-01T18:47:25;10.70;99.90
43581;DHT22;29175;51.030;4.606;2023-04-01T18:52:36;11.00;99.90
43581;DHT22;29175;51.030;4.606;2023-04-01T19:03:00;10.70;99.90
43581;DHT22;29175;51.030;4.606;2023-04-01T19:05:38;10.50;99.90
43581;DHT22;29175;51.030;4.606;2023-04-01T19:08:28;10.50;99.90
43581;DHT22;29175;51.030;4.606;2023-04-01T19:11:09;10.50;99.90
43581;DHT22;29175;51.030;4.606;2023-04-01T19:19:10;10.50;99.90
43581;DHT22;29175;51.030;4.606;2023-04-01T19:21:42;10.30;99.90
43581;DHT22;29175;51.030;4.606;2023-04-01T19:24:40;10.40;99.90
43581;DHT22;29175;51.030;4.606;2023-04-01T19:30:03;10.50;99.90
43581;DHT22;29175;51.030;4.606;2023-04-01T19:38:37;10.60;99.90
43581;DHT22;29175;51.030;4.606;2023-04-01T19:41:27;10.70;99.90
43581;DHT22;29175;51.030;4.606;2023-04-01T19:46:44;10.70;99.90
43581;DHT22;29175;51.030;4.606;2023-04-01T19:52:05;10.60;99.90
43581;DHT22;29175;51.030;4.606;2023-04-01T20:03:01;10.40;99.90
43581;DHT22;29175;51.030;4.606;2023-04-01T20:08:45;10.60;99.90
43581;DHT22;29175;51.030;4.606;2023-04-01T20:14:10;10.60;99.90
43581;DHT22;29175;51.030;4.606;2023-04-01T20:19:38;10.60;99.90
43581;DHT22;29175;51.030;4.606;2023-04-01T20:24:51;10.90;99.90
43581;DHT22;29175;51.030;4.606;2023-04-01T20:27:24;10.70;99.90
43581;DHT22;29175;51.030;4.606;2023-04-01T20:32:28;10.60;99.90
43581;DHT22;29175;51.030;4.606;2023-04-01T20:35:35;10.70;99.90
43581;DHT22;29175;51.030;4.606;2023-04-01T20:40:52;10.60;99.90
43581;DHT22;29175;51.030;4.606;2023-04-01T20:49:33;10.50;99.90
43581;DHT22;29175;51.030;4.606;2023-04-01T20:57:55;10.60;99.90
43581;DHT22;29175;51.030;4.606;2023-04-01T21:06:20;10.70;99.90
43581;DHT22;29175;51.030;4.606;2023-04-01T21:17:07;10.60;99.90
43581;DHT22;29175;51.030;4.606;2023-04-01T21:19:42;10.60;99.90
43581;DHT22;29175;51.030;4.606;2023-04-01T21:31:12;10.60;99.90
43581;DHT22;29175;51.030;4.606;2023-04-01T21:42:25;10.30;99.90
43581;DHT22;29175;51.030;4.606;2023-04-01T21:53:51;10.60;99.90
43581;DHT22;29175;51.030;4.606;2023-04-01T21:59:55;10.40;99.90
43581;DHT22;29175;51.030;4.606;2023-04-01T22:07:55;10.40;99.90
43581;DHT22;29175;51.030;4.606;2023-04-01T22:10:46;10.30;99.90
43581;DHT22;29175;51.030;4.606;2023-04-01T22:18:32;10.40;99.90
43581;DHT22;29175;51.030;4.606;2023-04-01T22:31:41;10.30;99.90
43581;DHT22;29175;51.030;4.606;2023-04-01T22:34:31;10.20;99.90
43581;DHT22;29175;51.030;4.606;2023-04-01T22:40:12;10.00;99.90
43581;DHT22;29175;51.030;4.606;2023-04-01T22:45:23;9.90;99.90
43581;DHT22;29175;51.030;4.606;2023-04-01T22:48:20;9.90;99.90
43581;DHT22;29175;51.030;4.606;2023-04-01T22:51:03;10.00;99.90
43581;DHT22;29175;51.030;4.606;2023-04-01T22:56:19;10.30;99.90
43581;DHT22;29175;51.030;4.606;2023-04-01T22:59:23;10.50;99.90
43581;DHT22;29175;51.030;4.606;2023-04-01T23:02:20;10.30;99.90
43581;DHT22;29175;51.030;4.606;2023-04-01T23:04:55;10.30;99.90
43581;DHT22;29175;51.030;4.606;2023-04-01T23:10:05;10.10;99.90
43581;DHT22;29175;51.030;4.606;2023-04-01T23:12:38;10.00;99.90
43581;DHT22;29175;51.030;4.606;2023-04-01T23:15:12;10.10;99.90
43581;DHT22;29175;51.030;4.606;2023-04-01T23:17:50;10.10;99.90
43581;DHT22;29175;51.030;4.606;2023-04-01T23:31:32;9.90;99.90
43581;DHT22;29175;51.030;4.606;2023-04-01T23:36:43;10.00;99.90
43581;DHT22;29175;51.030;4.606;2023-04-01T23:39:19;10.10;99.90
43581;DHT22;29175;51.030;4.606;2023-04-01T23:41:46;10.00;99.90
43581;DHT22;29175;51.030;4.606;2023-04-01T23:44:13;9.90;99.90
43581;DHT22;29175;51.030;4.606;2023-04-01T23:46:44;9.90;99.90
43581;DHT22;29175;51.030;4.606;2023-04-01T23:49:16;9.90;99.90
43581;DHT22;29175;51.030;4.606;2023-04-01T23:51:53;9.90;99.90
43581;DHT22;29175;51.030;4.606;2023-04-01T23:54:33;10.00;99.90
43581;DHT22;29175;51.030;4.606;2023-04-01T23:56:59;9.70;99.90
43581;DHT22;29175;51.030;4.606;2023-04-01T23:59:31;9.80;99.90
